Iris Victoria — V7TS8 — position and weather

sailwx.info

Track history (hours):
 
Tides and Currents Weather Stations Pressure Air Temp Water Temp Dewpoint Dewpoint Depression Visibility Wind Speed Wind Dir Waves Ship Positions

Iris Victoria

Last reported at 2014-Jul-15 14:24 UTC. Time now 2014-Jul-22 19:51 UTC.
Position N 01°09' E 103°42'.

Length 228 m; draft 8 m.

Type: Ship. MMSI: 538003876.

Date/timePositionNaut miles runAvg speedWind from/ knotsBaromVisibWave heightAir tempDewpointWater temp
2014-Jul-15 14:24N 01°09' E 103°42'1113.5
2014-Jul-15 13:33N 01°13' E 103°53'1313.2
2014-Jul-15 12:33N 01°17' E 104°06'  
2014-Jul-12 13:06N 01°17' E 103°43'1 0.9
2014-Jul-12 12:22N 01°17' E 103°44'6 7.9
2014-Jul-12 11:33N 01°13' E 103°48'1 0.9
2014-Jul-12 10:33N 01°14' E 103°48'0 0.1
2014-Jul-12 09:33N 01°14' E 103°48'0 0.1
2014-Jul-12 06:09N 01°14' E 103°49'0 0.0
2014-Jul-12 02:24N 01°13' E 103°49'0 0.0
2014-Jul-12 01:12N 01°13' E 103°49'0 0.0
2014-Jul-11 23:24N 01°13' E 103°49'0 0.0
2014-Jul-11 21:33N 01°14' E 103°49'0 0.0
2014-Jul-11 20:15N 01°14' E 103°49'0 0.0
2014-Jul-11 14:18N 01°13' E 103°48'0 0.1
2014-Jul-11 13:33N 01°13' E 103°48'0 0.1
2014-Jul-11 12:24N 01°14' E 103°48'0 0.1
2014-Jul-11 10:33N 01°13' E 103°48'0 0.1
2014-Jul-11 09:27N 01°14' E 103°48'0 0.0
2014-Jul-11 08:33N 01°14' E 103°48'0 0.1
2014-Jul-11 07:33N 01°14' E 103°48'0 0.0
2014-Jul-11 06:30N 01°14' E 103°48'0 0.0
2014-Jul-11 05:24N 01°14' E 103°48'0 0.1
2014-Jul-11 04:33N 01°14' E 103°48'0 0.1
2014-Jul-11 03:33N 01°13' E 103°48'0 0.0
2014-Jul-11 02:15N 01°13' E 103°48'0 0.1
2014-Jul-11 01:18N 01°13' E 103°48'0 0.1
2014-Jul-10 21:24N 01°14' E 103°49'0 0.0
2014-Jul-10 19:19N 01°13' E 103°49'1 0.2
2014-Jul-10 14:28N 01°13' E 103°50'0 0.1
2014-Jul-10 12:10N 01°13' E 103°49'0 0.2
2014-Jul-10 11:28N 01°13' E 103°49'0 0.0
2014-Jul-10 08:25N 01°13' E 103°49'0 0.0
2014-Jul-10 00:31N 01°13' E 103°49'0 0.1
2014-Jul-09 23:28N 01°13' E 103°49'0 0.1
2014-Jul-09 22:22N 01°13' E 103°50'0 0.0
2014-Jul-09 21:28N 01°13' E 103°50'0 0.1
2014-Jul-09 19:22N 01°13' E 103°50'0 0.0
2014-Jul-09 17:13N 01°13' E 103°50'0 0.0
2014-Jul-09 11:22N 01°13' E 103°49'0 0.1
2014-Jul-09 09:07N 01°13' E 103°50'0 0.1
2014-Jul-09 07:07N 01°13' E 103°49'0 0.1
2014-Jul-09 06:22N 01°13' E 103°49'0 0.1
2014-Jul-09 05:28N 01°13' E 103°49'0 0.1
2014-Jul-09 04:04N 01°13' E 103°50'0 0.0
2014-Jul-09 03:04N 01°13' E 103°50'0 0.0
2014-Jul-09 02:28N 01°13' E 103°50'0 0.0
2014-Jul-09 01:28N 01°13' E 103°50'0 0.0
2014-Jul-09 00:25N 01°13' E 103°50'0 0.0
2014-Jul-08 23:28N 01°13' E 103°50'0 0.0
2014-Jul-08 22:31N 01°13' E 103°50'0 0.0
2014-Jul-08 21:04N 01°13' E 103°50'0 0.0
2014-Jul-08 19:28N 01°13' E 103°50'0 0.0
2014-Jul-08 15:10N 01°13' E 103°50'0 0.0
2014-Jul-08 06:04N 01°13' E 103°49'0 0.0
2014-Jul-07 23:13N 01°13' E 103°50'0 0.1
2014-Jul-07 22:16N 01°13' E 103°50'0 0.1
2014-Jul-07 21:25N 01°13' E 103°50'0 0.1
2014-Jul-07 20:25N 01°13' E 103°50'0 0.1
2014-Jul-07 19:31N 01°13' E 103°50'0 0.0
2014-Jul-07 11:04N 01°13' E 103°50'0 0.0
2014-Jul-07 08:13N 01°13' E 103°50'0 0.0
2014-Jul-07 06:28N 01°13' E 103°50'0 0.1
2014-Jul-07 05:28N 01°13' E 103°50'0 0.1
2014-Jul-07 04:31N 01°13' E 103°50'0 0.1
2014-Jul-07 03:19N 01°13' E 103°50'0 0.0
2014-Jul-07 02:31N 01°13' E 103°50'0 0.0
2014-Jul-07 01:31N 01°13' E 103°50'0 0.1
2014-Jul-07 00:31N 01°13' E 103°50'0 0.0
2014-Jul-06 23:31N 01°13' E 103°50'0 0.0
2014-Jul-06 22:31N 01°13' E 103°50'0 0.0
2014-Jul-06 21:31N 01°13' E 103°50'1 0.7
2014-Jul-06 20:33N 01°12' E 103°49'8 7.8
2014-Jul-06 19:33N 01°14' E 103°42'0 0.2
2014-Jul-06 18:31N 01°14' E 103°41'0 0.0
2014-Jul-06 17:31N 01°14' E 103°41'0 0.0
2014-Jul-06 16:31N 01°14' E 103°41'0 0.0
2014-Jul-06 15:31N 01°14' E 103°41'0 0.0
2014-Jul-06 14:25N 01°14' E 103°41'0 0.0
2014-Jul-06 13:31N 01°14' E 103°41'0 0.0
2014-Jul-06 12:31N 01°14' E 103°41'0 0.0
2014-Jul-06 11:31N 01°14' E 103°41'0 0.0
2014-Jul-06 10:31N 01°14' E 103°41'0 0.0
2014-Jul-06 09:25N 01°14' E 103°41'0 0.0
2014-Jul-06 08:31N 01°14' E 103°41'0 0.0
2014-Jul-06 07:31N 01°14' E 103°41'0 0.0
2014-Jul-06 06:31N 01°14' E 103°41'0 0.0
2014-Jul-06 05:25N 01°14' E 103°41'0 0.0
2014-Jul-06 04:31N 01°14' E 103°41'0 0.0
2014-Jul-06 03:28N 01°14' E 103°41'0 0.0
2014-Jul-06 02:23N 01°14' E 103°41'0 0.0
2014-Jul-06 01:28N 01°14' E 103°41'0 0.0
2014-Jul-06 00:33N 01°14' E 103°41'3 2.9
2014-Jul-05 23:33N 01°12' E 103°40'0 0.1
2014-Jul-05 22:32N 01°12' E 103°40'0 0.0
2014-Jul-05 21:23N 01°12' E 103°40'0 0.0
2014-Jul-05 20:26N 01°12' E 103°40'0 0.0
2014-Jul-05 19:20N 01°12' E 103°40'0 0.0
2014-Jul-05 18:32N 01°12' E 103°40'0 0.0
2014-Jul-05 17:29N 01°12' E 103°40'0 0.1
2014-Jul-05 16:32N 01°12' E 103°40'0 0.0
2014-Jul-05 15:32N 01°12' E 103°40'0 0.1
2014-Jul-05 14:29N 01°12' E 103°40'  
Track history (hours):
 
Tides and Currents Weather Stations Pressure Air Temp Water Temp Dewpoint Dewpoint Depression Visibility Wind Speed Wind Dir Waves Ship Positions

Iris Victoria

Last reported at 2014-Jul-15 14:24 UTC. Time now 2014-Jul-22 19:51 UTC.
Position N 01°09' E 103°42'.

Length 228 m; draft 8 m.

Type: Ship. MMSI: 538003876.

Date/timePositionNaut miles runAvg speedWind from/ knotsBaromVisibWave heightAir tempDewpointWater temp
2014-Jul-15 14:24N 01°09' E 103°42'1113.5
2014-Jul-15 13:33N 01°13' E 103°53'1313.2
2014-Jul-15 12:33N 01°17' E 104°06'  
2014-Jul-12 13:06N 01°17' E 103°43'1 0.9
2014-Jul-12 12:22N 01°17' E 103°44'6 7.9
2014-Jul-12 11:33N 01°13' E 103°48'1 0.9
2014-Jul-12 10:33N 01°14' E 103°48'0 0.1
2014-Jul-12 09:33N 01°14' E 103°48'0 0.1
2014-Jul-12 06:09N 01°14' E 103°49'0 0.0
2014-Jul-12 02:24N 01°13' E 103°49'0 0.0
2014-Jul-12 01:12N 01°13' E 103°49'0 0.0
2014-Jul-11 23:24N 01°13' E 103°49'0 0.0
2014-Jul-11 21:33N 01°14' E 103°49'0 0.0
2014-Jul-11 20:15N 01°14' E 103°49'0 0.0
2014-Jul-11 14:18N 01°13' E 103°48'0 0.1
2014-Jul-11 13:33N 01°13' E 103°48'0 0.1
2014-Jul-11 12:24N 01°14' E 103°48'0 0.1
2014-Jul-11 10:33N 01°13' E 103°48'0 0.1
2014-Jul-11 09:27N 01°14' E 103°48'0 0.0
2014-Jul-11 08:33N 01°14' E 103°48'0 0.1
2014-Jul-11 07:33N 01°14' E 103°48'0 0.0
2014-Jul-11 06:30N 01°14' E 103°48'0 0.0
2014-Jul-11 05:24N 01°14' E 103°48'0 0.1
2014-Jul-11 04:33N 01°14' E 103°48'0 0.1
2014-Jul-11 03:33N 01°13' E 103°48'0 0.0
2014-Jul-11 02:15N 01°13' E 103°48'0 0.1
2014-Jul-11 01:18N 01°13' E 103°48'0 0.1
2014-Jul-10 21:24N 01°14' E 103°49'0 0.0
2014-Jul-10 19:19N 01°13' E 103°49'1 0.2
2014-Jul-10 14:28N 01°13' E 103°50'0 0.1
2014-Jul-10 12:10N 01°13' E 103°49'0 0.2
2014-Jul-10 11:28N 01°13' E 103°49'0 0.0
2014-Jul-10 08:25N 01°13' E 103°49'0 0.0
2014-Jul-10 00:31N 01°13' E 103°49'0 0.1
2014-Jul-09 23:28N 01°13' E 103°49'0 0.1
2014-Jul-09 22:22N 01°13' E 103°50'0 0.0
2014-Jul-09 21:28N 01°13' E 103°50'0 0.1
2014-Jul-09 19:22N 01°13' E 103°50'0 0.0
2014-Jul-09 17:13N 01°13' E 103°50'0 0.0
2014-Jul-09 11:22N 01°13' E 103°49'0 0.1
2014-Jul-09 09:07N 01°13' E 103°50'0 0.1
2014-Jul-09 07:07N 01°13' E 103°49'0 0.1
2014-Jul-09 06:22N 01°13' E 103°49'0 0.1
2014-Jul-09 05:28N 01°13' E 103°49'0 0.1
2014-Jul-09 04:04N 01°13' E 103°50'0 0.0
2014-Jul-09 03:04N 01°13' E 103°50'0 0.0
2014-Jul-09 02:28N 01°13' E 103°50'0 0.0
2014-Jul-09 01:28N 01°13' E 103°50'0 0.0
2014-Jul-09 00:25N 01°13' E 103°50'0 0.0
2014-Jul-08 23:28N 01°13' E 103°50'0 0.0
2014-Jul-08 22:31N 01°13' E 103°50'0 0.0
2014-Jul-08 21:04N 01°13' E 103°50'0 0.0
2014-Jul-08 19:28N 01°13' E 103°50'0 0.0
2014-Jul-08 15:10N 01°13' E 103°50'0 0.0
2014-Jul-08 06:04N 01°13' E 103°49'0 0.0
2014-Jul-07 23:13N 01°13' E 103°50'0 0.1
2014-Jul-07 22:16N 01°13' E 103°50'0 0.1
2014-Jul-07 21:25N 01°13' E 103°50'0 0.1
2014-Jul-07 20:25N 01°13' E 103°50'0 0.1
2014-Jul-07 19:31N 01°13' E 103°50'0 0.0
2014-Jul-07 11:04N 01°13' E 103°50'0 0.0
2014-Jul-07 08:13N 01°13' E 103°50'0 0.0
2014-Jul-07 06:28N 01°13' E 103°50'0 0.1
2014-Jul-07 05:28N 01°13' E 103°50'0 0.1
2014-Jul-07 04:31N 01°13' E 103°50'0 0.1
2014-Jul-07 03:19N 01°13' E 103°50'0 0.0
2014-Jul-07 02:31N 01°13' E 103°50'0 0.0
2014-Jul-07 01:31N 01°13' E 103°50'0 0.1
2014-Jul-07 00:31N 01°13' E 103°50'0 0.0
2014-Jul-06 23:31N 01°13' E 103°50'0 0.0
2014-Jul-06 22:31N 01°13' E 103°50'0 0.0
2014-Jul-06 21:31N 01°13' E 103°50'1 0.7
2014-Jul-06 20:33N 01°12' E 103°49'8 7.8
2014-Jul-06 19:33N 01°14' E 103°42'0 0.2
2014-Jul-06 18:31N 01°14' E 103°41'0 0.0
2014-Jul-06 17:31N 01°14' E 103°41'0 0.0
2014-Jul-06 16:31N 01°14' E 103°41'0 0.0
2014-Jul-06 15:31N 01°14' E 103°41'0 0.0
2014-Jul-06 14:25N 01°14' E 103°41'0 0.0
2014-Jul-06 13:31N 01°14' E 103°41'0 0.0
2014-Jul-06 12:31N 01°14' E 103°41'0 0.0
2014-Jul-06 11:31N 01°14' E 103°41'0 0.0
2014-Jul-06 10:31N 01°14' E 103°41'0 0.0
2014-Jul-06 09:25N 01°14' E 103°41'0 0.0
2014-Jul-06 08:31N 01°14' E 103°41'0 0.0
2014-Jul-06 07:31N 01°14' E 103°41'0 0.0
2014-Jul-06 06:31N 01°14' E 103°41'0 0.0
2014-Jul-06 05:25N 01°14' E 103°41'0 0.0
2014-Jul-06 04:31N 01°14' E 103°41'0 0.0
2014-Jul-06 03:28N 01°14' E 103°41'0 0.0
2014-Jul-06 02:23N 01°14' E 103°41'0 0.0
2014-Jul-06 01:28N 01°14' E 103°41'0 0.0
2014-Jul-06 00:33N 01°14' E 103°41'3 2.9
2014-Jul-05 23:33N 01°12' E 103°40'0 0.1
2014-Jul-05 22:32N 01°12' E 103°40'0 0.0
2014-Jul-05 21:23N 01°12' E 103°40'0 0.0
2014-Jul-05 20:26N 01°12' E 103°40'0 0.0
2014-Jul-05 19:20N 01°12' E 103°40'0 0.0
2014-Jul-05 18:32N 01°12' E 103°40'0 0.0
2014-Jul-05 17:29N 01°12' E 103°40'0 0.1
2014-Jul-05 16:32N 01°12' E 103°40'0 0.0
2014-Jul-05 15:32N 01°12' E 103°40'0 0.1
2014-Jul-05 14:29N 01°12' E 103°40'  

Dump ship's entire track history